Federal Manitou — V2CE9 — position and weather

sailwx.info

Track history (hours):
 
Tides and Currents Weather Stations Pressure Air Temp Water Temp Dewpoint Dewpoint Depression Visibility Wind Speed Wind Dir Waves Ship Positions

Federal Manitou

Last reported at 2017-Sep-14 17:21 UTC. Time now 2017-Sep-22 18:58 UTC.
Position N 45°12' W 074°18'.
Warning: this ship's position is 8 days out of date.

Length 185.1 m; beam 23.5 m; draft 9.8 m.

Type: Cargo ship. MMSI: 304603000.

Date/timePositionNaut miles runAvg speedWind from/ knotsBaromVisibWave heightAir tempDewpointWater temp
2017-Sep-14 17:21N 45°12' W 074°18'410.4
2017-Sep-14 17:00N 45°14' W 074°14'6 1.2
2017-Sep-14 11:58N 45°13' W 074°05'0 0.0
2017-Sep-14 10:40N 45°13' W 074°05'0 0.0
2017-Sep-14 09:40N 45°13' W 074°05'0 0.0
2017-Sep-14 08:22N 45°13' W 074°05'0 0.0
2017-Sep-14 07:58N 45°13' W 074°05'0 0.0
2017-Sep-14 07:22N 45°13' W 074°05'0 0.0
2017-Sep-14 06:58N 45°13' W 074°05'0 0.0
2017-Sep-14 06:22N 45°13' W 074°05'0 0.0
2017-Sep-14 05:46N 45°13' W 074°05'0 0.0
2017-Sep-14 05:28N 45°13' W 074°05'0 0.0
2017-Sep-14 04:58N 45°13' W 074°05'0 0.0
2017-Sep-14 04:22N 45°13' W 074°05'0 0.0
2017-Sep-14 03:52N 45°13' W 074°05'0 0.0
2017-Sep-14 03:22N 45°13' W 074°05'0 0.0
2017-Sep-14 02:58N 45°13' W 074°05'0 0.0
2017-Sep-14 02:22N 45°13' W 074°05'0 0.0
2017-Sep-14 01:58N 45°13' W 074°05'0 0.0
2017-Sep-12 01:46N 45°13' W 074°05'1 0.0
2017-Sep-10 17:01N 45°13' W 074°04'0 8.9
2017-Sep-10 16:59N 45°13' W 074°04'4 8.8
2017-Sep-10 16:30N 45°15' W 073°58'4 6.9
2017-Sep-10 16:00N 45°18' W 073°56'0 0.5
2017-Sep-10 15:30N 45°18' W 073°55'1 1.2
2017-Sep-10 15:00N 45°19' W 073°55'1 1.2
2017-Sep-10 14:00N 45°20' W 073°54'5 9.2
2017-Sep-10 13:30N 45°23' W 073°49'4 8.8
2017-Sep-10 13:00N 45°24' W 073°43'3 6.1
2017-Sep-10 12:30N 45°24' W 073°39'3 6.3
2017-Sep-10 12:00N 45°24' W 073°34'0 0.8
2017-Sep-10 11:27N 45°24' W 073°34'1 2.4
2017-Sep-10 10:57N 45°24' W 073°32'3 6.2
2017-Sep-10 10:29N 45°27' W 073°30'  
Track history (hours):
 
Tides and Currents Weather Stations Pressure Air Temp Water Temp Dewpoint Dewpoint Depression Visibility Wind Speed Wind Dir Waves Ship Positions

Federal Manitou

Last reported at 2017-Sep-14 17:21 UTC. Time now 2017-Sep-22 18:58 UTC.
Position N 45°12' W 074°18'.
Warning: this ship's position is 8 days out of date.

Length 185.1 m; beam 23.5 m; draft 9.8 m.

Type: Cargo ship. MMSI: 304603000.

Date/timePositionNaut miles runAvg speedWind from/ knotsBaromVisibWave heightAir tempDewpointWater temp
2017-Sep-14 17:21N 45°12' W 074°18'410.4
2017-Sep-14 17:00N 45°14' W 074°14'6 1.2
2017-Sep-14 11:58N 45°13' W 074°05'0 0.0
2017-Sep-14 10:40N 45°13' W 074°05'0 0.0
2017-Sep-14 09:40N 45°13' W 074°05'0 0.0
2017-Sep-14 08:22N 45°13' W 074°05'0 0.0
2017-Sep-14 07:58N 45°13' W 074°05'0 0.0
2017-Sep-14 07:22N 45°13' W 074°05'0 0.0
2017-Sep-14 06:58N 45°13' W 074°05'0 0.0
2017-Sep-14 06:22N 45°13' W 074°05'0 0.0
2017-Sep-14 05:46N 45°13' W 074°05'0 0.0
2017-Sep-14 05:28N 45°13' W 074°05'0 0.0
2017-Sep-14 04:58N 45°13' W 074°05'0 0.0
2017-Sep-14 04:22N 45°13' W 074°05'0 0.0
2017-Sep-14 03:52N 45°13' W 074°05'0 0.0
2017-Sep-14 03:22N 45°13' W 074°05'0 0.0
2017-Sep-14 02:58N 45°13' W 074°05'0 0.0
2017-Sep-14 02:22N 45°13' W 074°05'0 0.0
2017-Sep-14 01:58N 45°13' W 074°05'0 0.0
2017-Sep-12 01:46N 45°13' W 074°05'1 0.0
2017-Sep-10 17:01N 45°13' W 074°04'0 8.9
2017-Sep-10 16:59N 45°13' W 074°04'4 8.8
2017-Sep-10 16:30N 45°15' W 073°58'4 6.9
2017-Sep-10 16:00N 45°18' W 073°56'0 0.5
2017-Sep-10 15:30N 45°18' W 073°55'1 1.2
2017-Sep-10 15:00N 45°19' W 073°55'1 1.2
2017-Sep-10 14:00N 45°20' W 073°54'5 9.2
2017-Sep-10 13:30N 45°23' W 073°49'4 8.8
2017-Sep-10 13:00N 45°24' W 073°43'3 6.1
2017-Sep-10 12:30N 45°24' W 073°39'3 6.3
2017-Sep-10 12:00N 45°24' W 073°34'0 0.8
2017-Sep-10 11:27N 45°24' W 073°34'1 2.4
2017-Sep-10 10:57N 45°24' W 073°32'3 6.2
2017-Sep-10 10:29N 45°27' W 073°30'  

Dump ship's entire track history